Pine Lawn, Missouri
Current Conditions -  °F | °C
As of 10:51 AM on Tuesday 21 Oct 2014 (Local Time) from KSTL Reporting Station
Clear Clear  
Wind Chill: 60°   Ceiling: Unl
Heat Index: 60°   Visibility: 10mi
Dew Point: 45°   Wind: 5mph
Humidity: 57%   Direction: 70°ENE
Pressure: 30.14"   Gusts: NA
Location:  38.694°N, 90.256°W
Report Text: KSTL 211551Z 07004KT 10SM CLR 16/07 A3014 RMK AO2 SLP206 T01560072
Loading
Personal Weather Stations






























Interactive Weather Map
Tropical Storm Tracking
New forecast layout! Learn more

10-Day Weather Forecast

Advertisements
Track Severe Weather on mobile